Time;durP1;ratioP1;P1;durP2;ratioP2;P2;SDS_P1;SDS_P2;PMS_P1;PMS_P2;Temp;Humidity;BMP_temperature;BMP_pressure;BME280_temperature;BME280_humidity;BME280_pressure;Samples;Min_cycle;Max_cycle;Signal;HPM_P1;HPM_P2
2021/06/05 00:00:27;;;;;;;16.87;8.53;;;;;;;17.73;51.30;99611.63;1679927;84;21427;-57
2021/06/05 00:02:54;;;;;;;15.45;8.70;;;;;;;17.66;52.40;99604.11;1718521;82;20918;-58
2021/06/05 00:05:23;;;;;;;12.98;7.85;;;;;;;17.47;52.80;99606.34;1725673;83;21480;-57
2021/06/05 00:07:50;;;;;;;12.58;7.40;;;;;;;17.39;52.91;99603.88;1701261;83;21805;-57
2021/06/05 00:10:27;;;;;;;20.15;8.28;;;;;;;17.44;53.92;99604.06;1724243;83;21877;-57
2021/06/05 00:12:53;;;;;;;15.13;8.20;;;;;;;17.40;54.47;99604.16;1725616;83;20994;-58
2021/06/05 00:15:24;;;;;;;10.68;6.87;;;;;;;17.28;54.84;99595.39;1727331;83;20984;-57
2021/06/05 00:17:50;;;;;;;12.28;7.25;;;;;;;17.26;54.35;99598.81;1701163;83;21037;-57
2021/06/05 00:20:17;;;;;;;9.03;6.78;;;;;;;17.24;53.64;99597.37;1725703;83;21154;-57
2021/06/05 00:22:44;;;;;;;7.72;5.60;;;;;;;17.22;53.21;99597.59;1725777;83;21006;-57
2021/06/05 00:25:13;;;;;;;8.33;6.15;;;;;;;17.24;52.96;99591.48;1727883;83;21001;-57
2021/06/05 00:27:39;;;;;;;9.05;5.62;;;;;;;17.33;52.76;99590.75;1728000;83;21073;-57
2021/06/05 00:30:08;;;;;;;15.25;6.28;;;;;;;17.39;52.94;99596.61;1701337;83;20987;-57
2021/06/05 00:32:34;;;;;;;12.68;6.08;;;;;;;17.45;53.00;99588.22;1712446;83;21146;-57
2021/06/05 00:35:01;;;;;;;13.90;6.78;;;;;;;17.55;52.82;99587.28;1682744;83;20992;-56
2021/06/05 00:37:27;;;;;;;11.22;7.20;;;;;;;17.53;53.78;99588.02;1724615;83;21672;-57
2021/06/05 00:39:55;;;;;;;15.03;7.25;;;;;;;17.32;53.97;99590.94;1696516;84;21012;-57
2021/06/05 00:42:24;;;;;;;9.43;6.37;;;;;;;17.27;54.11;99583.52;1696635;84;21078;-57
2021/06/05 00:44:51;;;;;;;12.88;7.58;;;;;;;17.27;54.36;99589.72;1696649;84;21167;-57
2021/06/05 00:47:18;;;;;;;10.82;6.37;;;;;;;17.25;54.81;99585.08;1696713;84;21619;-57
2021/06/05 00:49:46;;;;;;;7.80;6.60;;;;;;;17.24;54.80;99584.77;1669756;85;21455;-57
2021/06/05 00:52:14;;;;;;;13.38;7.15;;;;;;;17.31;54.17;99582.59;1706436;83;21002;-57
2021/06/05 00:54:41;;;;;;;9.38;6.87;;;;;;;17.34;54.72;99587.00;1718024;83;20904;-57
2021/06/05 00:57:07;;;;;;;12.07;7.53;;;;;;;17.29;55.05;99591.68;1696977;83;21524;-57
2021/06/05 00:59:36;;;;;;;11.40;6.60;;;;;;;17.30;54.74;99579.06;1705367;83;20896;-57
2021/06/05 01:02:05;;;;;;;9.83;7.20;;;;;;;17.41;54.75;99578.94;1684811;84;20964;-57
2021/06/05 01:04:32;;;;;;;10.05;7.20;;;;;;;17.51;54.47;99571.24;1733182;81;20945;-57
2021/06/05 01:07:08;;;;;;;9.90;6.37;;;;;;;17.60;53.83;99567.30;1707848;82;21586;-57
2021/06/05 01:09:57;;;;;;;13.60;7.78;;;;;;;17.67;54.04;99568.95;1731260;81;21126;-57
2021/06/05 01:12:58;;;;;;;12.20;7.22;;;;;;;17.66;54.40;99568.63;1723917;82;21046;-56
2021/06/05 01:15:39;;;;;;;12.25;7.37;;;;;;;17.58;54.63;99566.69;1719356;82;20959;-56
2021/06/05 01:18:35;;;;;;;10.38;6.75;;;;;;;17.48;55.39;99560.91;1675821;81;20988;-58
2021/06/05 01:21:24;;;;;;;17.48;7.33;;;;;;;17.43;55.69;99555.34;1707118;82;20915;-57
2021/06/05 01:24:05;;;;;;;11.93;7.30;;;;;;;17.44;55.76;99558.34;1688185;84;21106;-57
2021/06/05 01:26:34;;;;;;;8.40;7.35;;;;;;;17.46;56.39;99564.33;1692554;82;21086;-57
2021/06/05 01:29:15;;;;;;;11.28;6.67;;;;;;;17.45;55.84;99556.78;1710950;82;20908;-57
2021/06/05 01:31:48;;;;;;;12.63;7.08;;;;;;;17.50;56.09;99555.62;1709202;82;20916;-57
2021/06/05 01:34:14;;;;;;;8.78;6.78;;;;;;;17.52;55.54;99558.11;1727189;81;21036;-57
2021/06/05 01:36:47;;;;;;;9.05;6.10;;;;;;;17.52;54.84;99559.45;1727173;81;21931;-57
2021/06/05 01:39:18;;;;;;;9.43;6.22;;;;;;;17.55;55.50;99555.00;1727073;81;21472;-57
2021/06/05 01:41:46;;;;;;;11.80;7.05;;;;;;;17.57;55.70;99559.13;1693943;83;21041;-57
2021/06/05 01:44:13;;;;;;;7.75;6.03;;;;;;;17.60;55.24;99552.50;1726865;81;20958;-57
2021/06/05 01:46:45;;;;;;;11.00;6.58;;;;;;;17.61;54.83;99559.03;1729228;81;20938;-57
2021/06/05 01:49:13;;;;;;;12.65;7.00;;;;;;;17.65;54.40;99559.44;1723066;81;21118;-57
2021/06/05 01:51:48;;;;;;;8.08;6.37;;;;;;;17.60;53.90;99550.64;1744836;81;21578;-57
2021/06/05 01:54:36;;;;;;;10.13;6.12;;;;;;;17.58;53.69;99550.03;1726867;82;21542;-57
2021/06/05 01:57:06;;;;;;;8.55;6.30;;;;;;;17.63;54.60;99552.91;1707498;81;21016;-57
2021/06/05 01:59:38;;;;;;;8.35;5.97;;;;;;;17.53;54.76;99554.40;1714740;83;20967;-57
2021/06/05 02:02:05;;;;;;;8.45;6.92;;;;;;;17.55;54.57;99555.00;1723437;83;21193;-57
2021/06/05 02:04:32;;;;;;;12.63;7.40;;;;;;;17.58;54.44;99555.41;1696605;83;20946;-56
2021/06/05 02:07:00;;;;;;;9.68;7.03;;;;;;;17.66;54.82;99563.24;1717592;83;21041;-57
2021/06/05 02:09:29;;;;;;;14.10;7.67;;;;;;;17.64;54.19;99560.46;1717904;83;20935;-57
2021/06/05 02:12:04;;;;;;;11.18;6.17;;;;;;;17.64;53.81;99557.77;1721951;83;21054;-57
2021/06/05 02:14:53;;;;;;;10.48;6.83;;;;;;;17.63;54.04;99552.91;1693340;83;21114;-57
2021/06/05 02:17:21;;;;;;;11.53;6.85;;;;;;;17.70;53.61;99548.86;1722959;83;20951;-57
2021/06/05 02:19:57;;;;;;;10.05;6.60;;;;;;;17.70;52.99;99550.20;1693724;83;21020;-57
2021/06/05 02:22:38;;;;;;;11.93;8.00;;;;;;;17.62;53.38;99553.97;1727924;83;21048;-56
2021/06/05 02:25:06;;;;;;;12.10;8.15;;;;;;;17.53;55.00;99553.05;1726608;83;20989;-56
2021/06/05 02:27:35;;;;;;;11.63;8.13;;;;;;;17.34;56.34;99552.59;1726525;83;21158;-56
2021/06/05 02:30:03;;;;;;;15.15;8.33;;;;;;;17.17;56.95;99557.59;1691282;84;21126;-56
2021/06/05 02:32:30;;;;;;;9.03;7.33;;;;;;;17.05;57.64;99563.31;1689335;83;21448;-56
2021/06/05 02:34:59;;;;;;;8.18;6.92;;;;;;;17.02;58.23;99559.70;1690086;83;20933;-57
2021/06/05 02:37:29;;;;;;;11.08;7.58;;;;;;;16.99;58.84;99551.54;1705574;83;21051;-57
2021/06/05 02:40:00;;;;;;;12.23;6.95;;;;;;;17.01;59.54;99556.18;1702610;83;21561;-57
2021/06/05 02:42:29;;;;;;;13.68;7.70;;;;;;;17.03;59.77;99559.98;1691923;83;21511;-57
2021/06/05 02:44:56;;;;;;;9.58;6.53;;;;;;;17.06;59.62;99548.31;1723528;83;21029;-57
2021/06/05 02:47:25;;;;;;;13.53;7.17;;;;;;;17.15;59.29;99547.03;1721957;83;20947;-57
2021/06/05 02:49:52;;;;;;;14.18;7.10;;;;;;;17.28;59.21;99551.03;1722906;83;20891;-57
2021/06/05 02:52:28;;;;;;;15.72;7.62;;;;;;;17.25;59.64;99539.89;1719114;83;21842;-57
2021/06/05 02:55:04;;;;;;;11.88;7.65;;;;;;;17.25;59.93;99543.41;1692362;83;20972;-57
2021/06/05 02:57:31;;;;;;;12.07;7.28;;;;;;;17.26;60.10;99540.18;1704363;82;21749;-57
2021/06/05 02:59:58;;;;;;;12.58;7.28;;;;;;;17.31;60.27;99538.22;1723423;81;21618;-57
2021/06/05 03:02:26;;;;;;;14.07;7.87;;;;;;;17.31;60.44;99539.05;1750982;81;21041;-57
2021/06/05 03:04:53;;;;;;;14.75;8.43;;;;;;;17.36;60.17;99534.38;1719583;82;21173;-57
2021/06/05 03:07:20;;;;;;;11.12;7.55;;;;;;;17.36;59.68;99531.17;1715173;82;20936;-57
2021/06/05 03:09:47;;;;;;;13.18;8.03;;;;;;;17.42;58.79;99535.69;1706981;82;20955;-57
2021/06/05 03:12:14;;;;;;;13.40;7.25;;;;;;;17.49;58.22;99530.30;1697487;82;20963;-57
2021/06/05 03:14:42;;;;;;;11.63;7.50;;;;;;;17.58;58.01;99532.55;1723614;81;20973;-57
2021/06/05 03:17:10;;;;;;;12.68;8.30;;;;;;;17.69;57.52;99529.70;1749024;81;21152;-57
2021/06/05 03:19:38;;;;;;;10.78;8.93;;;;;;;17.74;57.19;99532.58;1710716;82;20918;-57
2021/06/05 03:22:05;;;;;;;11.30;8.00;;;;;;;17.71;57.09;99530.31;1751161;81;21456;-57
2021/06/05 03:24:33;;;;;;;9.88;7.47;;;;;;;17.60;57.70;99525.59;1753018;81;20942;-57
2021/06/05 03:27:04;;;;;;;12.53;8.10;;;;;;;17.59;57.99;99529.34;1750001;81;20957;-59
2021/06/05 03:29:33;;;;;;;13.95;9.38;;;;;;;17.53;58.85;99529.67;1738688;81;21620;-57
2021/06/05 03:32:00;;;;;;;21.65;12.82;;;;;;;17.55;58.88;99530.28;1735580;81;21016;-58
2021/06/05 03:34:28;;;;;;;18.48;10.05;;;;;;;17.63;58.38;99530.04;1742626;82;21536;-56
2021/06/05 03:36:56;;;;;;;17.05;9.35;;;;;;;17.68;58.96;99529.39;1703186;83;21456;-58
2021/06/05 03:39:23;;;;;;;15.58;8.90;;;;;;;17.59;59.53;99523.97;1707100;83;21066;-58
2021/06/05 03:41:51;;;;;;;14.30;8.98;;;;;;;17.49;60.09;99527.09;1747137;81;21056;-58
2021/06/05 03:44:20;;;;;;;12.73;8.80;;;;;;;17.56;60.23;99519.01;1690737;83;21108;-58
2021/06/05 03:46:48;;;;;;;14.18;8.45;;;;;;;17.69;59.49;99513.56;1683833;83;21527;-56
2021/06/05 03:49:15;;;;;;;14.78;11.38;;;;;;;17.80;58.57;99516.93;1709399;82;21035;-58
2021/06/05 03:51:41;;;;;;;13.65;9.28;;;;;;;17.92;58.32;99516.53;1714658;83;21000;-58
2021/06/05 03:54:08;;;;;;;11.90;8.28;;;;;;;18.00;58.52;99513.59;1710904;82;22442;-58
2021/06/05 03:56:35;;;;;;;13.30;8.85;;;;;;;18.03;56.68;99502.91;1714667;83;20968;-56
2021/06/05 03:59:02;;;;;;;15.18;7.55;;;;;;;18.09;55.35;99507.43;1696740;83;20911;-57
2021/06/05 04:01:31;;;;;;;12.37;8.70;;;;;;;18.13;54.96;99508.12;1718832;83;21070;-57
2021/06/05 04:03:58;;;;;;;16.32;8.18;;;;;;;18.12;56.21;99512.39;1705940;84;20985;-58
2021/06/05 04:06:25;;;;;;;11.57;8.08;;;;;;;18.16;57.50;99509.55;1697981;83;21090;-58
2021/06/05 04:08:53;;;;;;;14.03;7.80;;;;;;;18.22;58.14;99509.52;1702803;81;21450;-58
2021/06/05 04:11:20;;;;;;;15.03;7.70;;;;;;;18.32;57.09;99511.19;1705666;83;20954;-58
2021/06/05 04:13:48;;;;;;;14.63;8.45;;;;;;;18.36;57.85;99513.73;1709150;83;21136;-58
2021/06/05 04:16:15;;;;;;;10.25;7.53;;;;;;;18.31;58.72;99517.61;1735701;82;21586;-58
2021/06/05 04:18:44;;;;;;;13.65;8.60;;;;;;;18.31;59.29;99518.13;1710462;81;21634;-58
2021/06/05 04:21:13;;;;;;;14.93;7.53;;;;;;;18.39;59.47;99521.37;1739161;82;21016;-58
2021/06/05 04:23:40;;;;;;;11.57;7.72;;;;;;;18.52;59.01;99512.91;1715969;83;21520;-58
2021/06/05 04:26:06;;;;;;;9.63;7.50;;;;;;;18.65;58.28;99516.83;1705382;84;21090;-58
2021/06/05 04:28:33;;;;;;;12.43;7.28;;;;;;;18.66;59.08;99505.02;1710300;83;21069;-58
2021/06/05 04:31:01;;;;;;;14.58;8.93;;;;;;;18.62;59.96;99510.53;1712743;82;21108;-58
2021/06/05 04:33:28;;;;;;;9.90;7.25;;;;;;;18.58;60.29;99506.13;1744601;81;20974;-58
2021/06/05 04:35:56;;;;;;;13.70;8.25;;;;;;;18.62;60.08;99497.89;1716636;83;20965;-57
2021/06/05 04:38:23;;;;;;;14.25;8.10;;;;;;;18.73;60.18;99499.04;1705482;84;20925;-57
2021/06/05 04:40:49;;;;;;;13.62;8.10;;;;;;;18.75;59.84;99497.77;1706077;83;21005;-57
2021/06/05 04:43:17;;;;;;;11.83;7.45;;;;;;;18.66;59.12;99494.25;1705231;84;21205;-57
2021/06/05 04:45:46;;;;;;;9.85;7.50;;;;;;;18.70;59.13;99504.87;1708458;83;20999;-57
2021/06/05 04:48:14;;;;;;;13.93;7.97;;;;;;;18.82;58.72;99508.50;1740673;82;21019;-57
2021/06/05 04:50:41;;;;;;;13.60;7.42;;;;;;;18.91;58.74;99501.23;1717257;82;21016;-57
2021/06/05 04:53:08;;;;;;;13.43;6.65;;;;;;;19.04;58.40;99495.70;1740743;82;20979;-57
2021/06/05 04:55:35;;;;;;;9.20;6.42;;;;;;;19.11;57.47;99497.80;1740809;82;21888;-57
2021/06/05 04:58:02;;;;;;;10.90;7.00;;;;;;;19.24;56.17;99500.06;1729570;82;20994;-57
2021/06/05 05:00:34;;;;;;;9.75;7.08;;;;;;;19.41;55.42;99490.33;1717115;82;21045;-56
2021/06/05 05:03:01;;;;;;;13.38;7.87;;;;;;;19.94;53.28;99489.92;1685672;84;21045;-57
2021/06/05 05:05:28;;;;;;;12.37;7.92;;;;;;;20.66;50.95;99482.00;1719327;83;20960;-58
2021/06/05 05:07:55;;;;;;;12.60;8.48;;;;;;;21.45;48.83;99473.21;1719171;83;21983;-58
2021/06/05 05:10:29;;;;;;;9.70;7.55;;;;;;;22.60;46.51;99472.25;1734159;82;21057;-56
2021/06/05 05:12:56;;;;;;;15.08;7.22;;;;;;;23.79;43.98;99483.36;1716387;82;20949;-58
2021/06/05 05:15:23;;;;;;;11.97;7.05;;;;;;;25.12;41.26;99466.80;1696750;82;20962;-58
2021/06/05 05:17:49;;;;;;;14.28;7.12;;;;;;;26.51;38.67;99463.59;1705699;82;20991;-58
2021/06/05 05:20:21;;;;;;;14.03;7.42;;;;;;;27.91;36.15;99470.50;1708816;82;21682;-58
2021/06/05 05:22:48;;;;;;;15.32;7.12;;;;;;;28.70;33.97;99457.05;1706159;82;21037;-58
2021/06/05 05:25:15;;;;;;;13.18;6.35;;;;;;;29.45;32.13;99458.67;1731307;81;21461;-58
2021/06/05 05:27:41;;;;;;;14.95;6.72;;;;;;;30.49;30.10;99444.52;1710249;82;21078;-58
2021/06/05 05:30:14;;;;;;;7.60;6.80;;;;;;;31.35;28.93;99449.73;1729007;81;21032;-58
2021/06/05 05:32:41;;;;;;;11.88;5.87;;;;;;;31.62;28.23;99446.17;1692233;84;21152;-58
2021/06/05 05:35:11;;;;;;;9.75;5.42;;;;;;;31.48;27.74;99450.87;1728790;80;20946;-59
2021/06/05 05:37:37;;;;;;;8.83;4.55;;;;;;;31.02;27.74;99449.05;1730421;80;20967;-58
2021/06/05 05:40:07;;;;;;;8.03;4.30;;;;;;;30.64;27.44;99448.08;1730152;80;21539;-58
2021/06/05 05:42:33;;;;;;;11.08;4.97;;;;;;;30.96;26.80;99450.81;1736704;82;21000;-58
2021/06/05 05:44:59;;;;;;;5.03;4.47;;;;;;;31.57;26.03;99440.20;1723889;83;21142;-58
2021/06/05 05:47:25;;;;;;;10.60;4.70;;;;;;;32.41;25.33;99445.92;1723110;83;21408;-58
2021/06/05 05:49:53;;;;;;;9.80;4.00;;;;;;;33.29;24.33;99445.52;1706003;83;20910;-58
2021/06/05 05:52:20;;;;;;;6.58;4.20;;;;;;;33.82;24.00;99448.05;1739784;80;20998;-57
2021/06/05 05:54:47;;;;;;;7.47;4.62;;;;;;;34.15;23.32;99443.72;1739784;81;21006;-57
2021/06/05 05:57:14;;;;;;;8.18;4.10;;;;;;;34.60;22.99;99443.56;1724999;81;21127;-58
2021/06/05 05:59:41;;;;;;;12.30;5.30;;;;;;;35.21;22.88;99438.08;1717970;83;20981;-58
2021/06/05 06:02:07;;;;;;;13.70;5.90;;;;;;;35.70;22.12;99446.73;1720879;83;20974;-57
2021/06/05 06:04:34;;;;;;;7.95;4.97;;;;;;;36.04;21.57;99438.77;1721874;83;21673;-56
2021/06/05 06:07:00;;;;;;;15.25;6.55;;;;;;;35.98;21.28;99440.89;1726438;83;21062;-56
2021/06/05 06:09:27;;;;;;;15.98;7.08;;;;;;;35.75;21.37;99441.00;1725611;83;21140;-59
2021/06/05 06:11:53;;;;;;;19.62;6.92;;;;;;;35.49;21.42;99436.19;1708210;82;21495;-55
2021/06/05 06:14:21;;;;;;;16.80;6.60;;;;;;;34.75;21.93;99434.73;1719551;82;20992;-57
2021/06/05 06:16:48;;;;;;;16.10;7.85;;;;;;;34.28;22.46;99437.77;1720664;82;21002;-57
2021/06/05 06:19:14;;;;;;;15.98;8.03;;;;;;;34.06;22.54;99438.20;1713464;82;21512;-57
2021/06/05 06:21:42;;;;;;;23.27;8.18;;;;;;;33.75;22.70;99443.03;1710473;83;21136;-56
2021/06/05 06:24:10;;;;;;;22.98;8.93;;;;;;;33.43;22.78;99437.91;1710647;83;20978;-58
2021/06/05 06:26:36;;;;;;;22.27;8.10;;;;;;;33.27;23.15;99436.77;1709701;82;21516;-54
2021/06/05 06:29:21;;;;;;;16.20;6.97;;;;;;;33.23;23.48;99439.34;1712220;83;20955;-57
2021/06/05 06:31:48;;;;;;;17.75;6.87;;;;;;;33.29;23.68;99435.88;1713082;82;20978;-57
2021/06/05 06:34:15;;;;;;;16.97;7.10;;;;;;;33.37;23.52;99441.39;1712628;83;22012;-58
2021/06/05 06:36:44;;;;;;;17.27;6.37;;;;;;;33.29;23.69;99435.31;1713153;83;21527;-57
2021/06/05 06:39:12;;;;;;;12.00;5.03;;;;;;;33.42;23.53;99434.93;1707024;83;21544;-58
2021/06/05 06:41:38;;;;;;;17.02;5.10;;;;;;;33.53;23.17;99429.33;1712654;83;21562;-58
2021/06/05 06:44:05;;;;;;;8.15;5.05;;;;;;;33.70;22.99;99429.40;1710938;83;21125;-60
2021/06/05 06:46:43;;;;;;;16.07;5.50;;;;;;;33.75;23.24;99427.86;1707688;83;21171;-58
2021/06/05 06:49:09;;;;;;;10.63;4.12;;;;;;;33.88;23.45;99427.45;1708982;82;21473;-60
2021/06/05 06:51:36;;;;;;;7.30;3.70;;;;;;;33.82;22.86;99420.46;1712753;82;20919;-59
2021/06/05 06:54:05;;;;;;;6.05;4.28;;;;;;;33.66;22.62;99424.86;1712615;82;21105;-54
2021/06/05 06:56:33;;;;;;;9.30;5.33;;;;;;;33.67;22.74;99420.95;1709834;82;20982;-55
2021/06/05 06:59:03;;;;;;;11.28;3.72;;;;;;;33.81;22.45;99418.86;1707537;83;21172;-54
2021/06/05 07:01:30;;;;;;;7.22;3.47;;;;;;;33.89;22.19;99422.19;1670769;84;20966;-54
2021/06/05 07:03:56;;;;;;;7.72;3.85;;;;;;;34.02;22.36;99419.27;1715587;82;21074;-59
2021/06/05 07:06:25;;;;;;;8.28;3.52;;;;;;;34.38;22.38;99419.48;1672927;84;21034;-59
2021/06/05 07:08:52;;;;;;;6.83;3.40;;;;;;;34.65;21.99;99416.36;1702857;83;21495;-62
2021/06/05 07:11:28;;;;;;;9.45;3.45;;;;;;;34.80;21.72;99424.66;1707951;82;21892;-60
2021/06/05 07:13:55;;;;;;;6.20;3.25;;;;;;;34.87;21.62;99418.86;1704409;82;21001;-60
2021/06/05 07:16:21;;;;;;;9.15;3.37;;;;;;;34.85;21.48;99417.57;1708814;82;20958;-59
2021/06/05 07:18:49;;;;;;;5.60;3.10;;;;;;;34.69;21.69;99416.74;1707188;82;21086;-58
2021/06/05 07:21:17;;;;;;;10.43;3.80;;;;;;;34.48;21.84;99413.60;1702055;82;21041;-57
2021/06/05 07:23:44;;;;;;;6.47;3.25;;;;;;;34.29;22.00;99409.01;1705652;82;21180;-59
2021/06/05 07:26:17;;;;;;;6.60;2.90;;;;;;;34.05;22.02;99411.69;1707798;82;21546;-60
2021/06/05 07:28:48;;;;;;;9.05;2.80;;;;;;;33.59;22.10;99412.91;1715675;83;20998;-59
2021/06/05 07:31:22;;;;;;;9.80;3.67;;;;;;;33.48;22.58;99408.25;1713904;82;21070;-59
2021/06/05 07:33:50;;;;;;;7.47;3.23;;;;;;;33.63;22.47;99410.34;1713771;83;21030;-65
2021/06/05 07:36:22;;;;;;;4.85;3.25;;;;;;;33.87;22.28;99400.42;1708426;82;21957;-58
2021/06/05 07:38:48;;;;;;;5.87;3.17;;;;;;;34.24;21.69;99396.20;1711237;82;21047;-63
2021/06/05 07:41:15;;;;;;;6.53;4.33;;;;;;;34.43;21.48;99397.21;1710268;83;21002;-60
2021/06/05 07:43:43;;;;;;;6.50;3.35;;;;;;;34.62;20.93;99399.87;1713081;82;20994;-60
2021/06/05 07:46:10;;;;;;;5.92;3.27;;;;;;;34.85;20.91;99390.76;1711710;83;44678;-55
2021/06/05 07:48:38;;;;;;;8.60;4.50;;;;;;;35.16;20.26;99385.75;1711855;83;21108;-68
2021/06/05 07:51:05;;;;;;;7.40;3.67;;;;;;;35.21;20.30;99384.16;1720542;82;21041;-66
2021/06/05 07:53:32;;;;;;;5.70;4.28;;;;;;;35.07;20.03;99385.53;1688381;84;21044;-62
2021/06/05 07:56:00;;;;;;;7.95;4.67;;;;;;;34.88;20.14;99383.75;1694856;84;21050;-63
2021/06/05 07:58:27;;;;;;;11.60;6.37;;;;;;;35.08;20.15;99383.02;1706298;83;21123;-61
2021/06/05 08:00:53;;;;;;;15.10;8.55;;;;;;;35.19;19.91;99381.50;1713401;83;21750;-63
2021/06/05 08:03:20;;;;;;;18.45;9.45;;;;;;;35.31;19.87;99381.01;1719480;83;21014;-61
2021/06/05 08:05:46;;;;;;;16.77;9.20;;;;;;;35.45;20.00;99374.41;1719809;82;21503;-64
2021/06/05 08:08:16;;;;;;;18.48;7.58;;;;;;;35.51;19.72;99376.63;1709114;83;20915;-61
2021/06/05 08:10:43;;;;;;;15.32;6.75;;;;;;;35.39;19.74;99379.89;1710959;83;21431;-61
2021/06/05 08:13:12;;;;;;;12.80;6.22;;;;;;;35.34;19.56;99374.81;1739682;82;20884;-62
2021/06/05 08:15:44;;;;;;;9.58;4.72;;;;;;;35.69;19.54;99365.72;1712668;83;21526;-62
2021/06/05 08:18:13;;;;;;;8.75;4.55;;;;;;;35.90;19.48;99372.61;1718164;82;21515;-61
2021/06/05 08:20:43;;;;;;;9.10;4.42;;;;;;;35.99;18.98;99369.17;1718410;83;20962;-60
2021/06/05 08:23:10;;;;;;;9.20;4.65;;;;;;;36.13;19.05;99367.52;1729546;81;20970;-60
2021/06/05 08:25:37;;;;;;;8.90;4.28;;;;;;;36.34;19.03;99363.55;1739303;81;21869;-62
2021/06/05 08:28:05;;;;;;;6.62;4.30;;;;;;;36.43;18.90;99360.66;1723107;82;21405;-61
2021/06/05 08:30:36;;;;;;;5.08;3.20;;;;;;;36.56;18.86;99361.52;1737219;81;20950;-62
2021/06/05 08:33:03;;;;;;;3.40;2.47;;;;;;;36.48;18.31;99361.28;1719580;83;20983;-62
2021/06/05 08:35:29;;;;;;;5.70;3.80;;;;;;;36.07;18.33;99353.66;1717517;83;21014;-61
2021/06/05 08:37:56;;;;;;;7.15;4.10;;;;;;;35.92;18.19;99351.75;1720547;83;21255;-60
2021/06/05 08:40:28;;;;;;;5.03;3.75;;;;;;;35.62;18.50;99343.86;1720006;83;21516;-60
2021/06/05 08:42:54;;;;;;;7.40;3.45;;;;;;;35.57;18.66;99342.69;1662271;83;21472;-61
2021/06/05 08:45:24;;;;;;;4.70;3.02;;;;;;;35.56;19.18;99346.05;1690049;83;20994;-62
2021/06/05 08:47:51;;;;;;;3.55;2.42;;;;;;;35.66;19.37;99346.20;1698120;83;21084;-63
2021/06/05 08:50:23;;;;;;;3.30;2.00;;;;;;;35.83;19.14;99338.55;1708436;82;21203;-63
2021/06/05 08:53:02;;;;;;;6.90;2.20;;;;;;;36.08;18.91;99337.29;1726399;81;20938;-59
2021/06/05 08:55:47;;;;;;;3.55;1.80;;;;;;;36.04;18.58;99334.95;1718107;81;21526;-53
2021/06/05 08:58:39;;;;;;;6.83;2.47;;;;;;;35.85;18.83;99331.31;1702356;82;20918;-54
2021/06/05 09:01:17;;;;;;;3.45;1.70;;;;;;;36.21;19.75;99332.02;1710997;83;21033;-53
2021/06/05 09:03:46;;;;;;;4.42;1.60;;;;;;;36.64;18.58;99324.59;1700736;83;21262;-54
2021/06/05 09:06:37;;;;;;;6.50;4.05;;;;;;;36.97;18.16;99327.49;1711067;83;20928;-54
2021/06/05 09:09:07;;;;;;;5.78;2.52;;;;;;;37.24;16.83;99328.73;1721900;82;21120;-55
2021/06/05 09:11:35;;;;;;;6.55;2.33;;;;;;;37.28;16.49;99322.73;1722894;83;21019;-54
2021/06/05 09:14:01;;;;;;;3.77;2.15;;;;;;;37.05;17.53;99320.23;1721997;82;20991;-57
2021/06/05 09:16:46;;;;;;;6.37;2.22;;;;;;;36.80;18.69;99317.20;1722175;82;21937;-59
2021/06/05 09:19:28;;;;;;;4.35;2.02;;;;;;;36.55;18.24;99319.17;1721799;82;21049;-59
2021/06/05 09:22:18;;;;;;;4.97;1.70;;;;;;;36.29;18.50;99322.23;1722763;83;21398;-58
2021/06/05 09:24:50;;;;;;;3.12;1.60;;;;;;;36.07;18.08;99312.95;1710041;82;21662;-59
2021/06/05 09:27:21;;;;;;;5.60;2.00;;;;;;;35.80;18.21;99312.94;1722302;83;20978;-60
2021/06/05 09:30:08;;;;;;;4.58;3.12;;;;;;;35.42;18.25;99320.58;1723129;82;21073;-62
2021/06/05 09:32:45;;;;;;;6.33;2.92;;;;;;;34.93;18.45;99318.62;1707145;83;20999;-58
2021/06/05 09:35:20;;;;;;;4.80;2.35;;;;;;;34.39;18.54;99313.43;1698176;83;20947;-58
2021/06/05 09:37:55;;;;;;;4.97;1.92;;;;;;;33.99;19.17;99318.38;1723196;83;20951;-59
2021/06/05 09:40:27;;;;;;;;;;;;;;;33.74;19.15;99313.13;1698252;83;21003;-59
2021/06/05 09:42:58;;;;;;;6.42;2.50;;;;;;;33.19;19.32;99311.56;1719401;83;21808;-59
2021/06/05 09:45:36;;;;;;;3.33;1.95;;;;;;;32.86;19.52;99301.52;1693016;83;20951;-59
2021/06/05 09:48:32;;;;;;;3.77;2.05;;;;;;;32.53;19.84;99303.60;1722659;82;21027;-61
2021/06/05 09:51:03;;;;;;;2.83;1.90;;;;;;;32.12;20.42;99307.42;1721000;82;21010;-61
2021/06/05 09:53:35;;;;;;;1.80;1.70;;;;;;;31.81;20.98;99307.14;1719916;83;21056;-57
2021/06/05 09:56:15;;;;;;;2.98;1.80;;;;;;;31.48;21.19;99306.00;1716340;82;21707;-58
2021/06/05 09:58:45;;;;;;;4.47;1.50;;;;;;;31.21;21.62;99313.50;1720639;83;20958;-60
2021/06/05 10:01:26;;;;;;;3.47;1.82;;;;;;;30.77;22.27;99306.70;1712685;83;21058;-59
2021/06/05 10:03:55;;;;;;;5.35;2.00;;;;;;;30.44;22.90;99309.31;1715182;83;21670;-60
2021/06/05 10:06:39;;;;;;;5.20;1.98;;;;;;;30.33;23.40;99308.66;1717332;83;20955;-59
2021/06/05 10:09:30;;;;;;;4.42;1.70;;;;;;;30.20;23.09;99297.66;1716962;83;21991;-59
2021/06/05 10:12:13;;;;;;;10.65;3.25;;;;;;;29.79;23.48;99303.88;1714871;83;20974;-59
2021/06/05 10:15:02;;;;;;;5.33;2.02;;;;;;;29.64;23.86;99300.55;1717124;83;20987;-60
2021/06/05 10:17:40;;;;;;;2.92;1.50;;;;;;;29.63;23.61;99294.80;1716745;83;21579;-61
2021/06/05 10:20:36;;;;;;;1.98;1.57;;;;;;;29.61;23.62;99297.03;1714049;83;21078;-64
2021/06/05 10:23:02;;;;;;;2.25;1.37;;;;;;;29.60;23.54;99284.42;1717056;83;21139;-66
2021/06/05 10:25:40;;;;;;;2.62;1.25;;;;;;;29.58;23.45;99287.48;1714820;83;20939;-66
2021/06/05 10:28:15;;;;;;;2.15;1.70;;;;;;;29.68;23.92;99287.31;1717055;83;21081;-64
2021/06/05 10:30:54;;;;;;;3.95;1.65;;;;;;;29.86;23.93;99289.77;1710823;83;21075;-67
2021/06/05 10:33:35;;;;;;;2.52;1.60;;;;;;;29.86;23.92;99291.14;1689193;83;20952;-64
2021/06/05 10:36:07;;;;;;;8.53;4.67;;;;;;;29.83;24.08;99289.00;1705964;83;21963;-64
2021/06/05 10:38:44;;;;;;;3.58;2.85;;;;;;;29.84;24.07;99290.64;1712330;83;21444;-61
2021/06/05 10:41:16;;;;;;;4.15;2.40;;;;;;;29.83;23.95;99282.14;1723279;82;20911;-63
2021/06/05 10:43:44;;;;;;;4.47;2.08;;;;;;;29.74;23.98;99284.75;1693830;83;20960;-62
2021/06/05 10:46:21;;;;;;;6.87;2.02;;;;;;;29.66;23.83;99282.69;1723170;83;21566;-62
2021/06/05 10:48:48;;;;;;;1.40;1.30;;;;;;;29.59;23.98;99286.93;1723294;83;21391;-62
2021/06/05 10:51:26;;;;;;;5.55;1.85;;;;;;;29.48;24.32;99281.34;1712660;83;21798;-61
2021/06/05 10:54:10;;;;;;;5.17;2.00;;;;;;;29.45;24.69;99283.31;1720786;83;21560;-62
2021/06/05 10:57:01;;;;;;;4.47;1.70;;;;;;;29.41;24.62;99279.55;1721983;83;21038;-61
2021/06/05 10:59:49;;;;;;;5.25;2.00;;;;;;;29.26;24.94;99277.84;1709392;82;20920;-60
2021/06/05 11:02:43;;;;;;;3.45;1.70;;;;;;;29.16;24.91;99273.30;1708572;83;21934;-61
2021/06/05 11:05:29;;;;;;;8.15;3.40;;;;;;;29.06;24.83;99282.22;1721653;81;21626;-63
2021/06/05 11:08:14;;;;;;;4.65;2.62;;;;;;;28.86;24.94;99278.41;1718868;82;21039;-63
2021/06/05 11:10:52;;;;;;;3.52;1.70;;;;;;;28.82;25.10;99279.53;1711773;82;21536;-65
2021/06/05 11:13:41;;;;;;;5.00;1.70;;;;;;;28.71;24.77;99277.48;1719503;82;21602;-63
2021/06/05 11:16:13;;;;;;;3.40;1.50;;;;;;;28.61;24.62;99278.13;1718948;81;21500;-63
2021/06/05 11:18:43;;;;;;;3.80;1.80;;;;;;;28.55;25.21;99280.69;1722083;82;21002;-63
2021/06/05 11:21:29;;;;;;;4.37;2.80;;;;;;;28.51;25.73;99274.97;1721949;82;20998;-67
2021/06/05 11:24:02;;;;;;;5.25;2.90;;;;;;;28.48;25.61;99278.28;1718935;82;20926;-66
2021/06/05 11:26:46;;;;;;;3.30;2.35;;;;;;;28.44;25.85;99270.41;1722440;81;21084;-65
2021/06/05 11:29:30;;;;;;;2.98;2.08;;;;;;;28.38;26.06;99277.59;1722155;82;21048;-68
2021/06/05 11:32:31;;;;;;;8.25;1.90;;;;;;;28.30;25.95;99276.86;1718938;82;21009;-65
2021/06/05 11:35:00;;;;;;;2.20;2.00;;;;;;;28.17;26.79;99278.36;1630537;87;21099;-63
2021/06/05 11:37:38;;;;;;;3.12;2.00;;;;;;;28.04;26.83;99274.41;1721494;82;21588;-64
2021/06/05 11:40:09;;;;;;;2.72;1.67;;;;;;;27.92;27.59;99274.50;1723416;81;20935;-64
2021/06/05 11:42:53;;;;;;;4.83;1.80;;;;;;;27.85;28.05;99275.37;1713077;82;21100;-63
2021/06/05 11:45:31;;;;;;;4.08;2.50;;;;;;;27.75;28.06;99272.19;1722103;81;20994;-57
2021/06/05 11:47:58;;;;;;;4.45;2.00;;;;;;;27.62;29.39;99266.02;1722533;81;20899;-57